Time;durP1;ratioP1;P1;durP2;ratioP2;P2;SDS_P1;SDS_P2;PMS_P1;PMS_P2;Temp;Humidity;BMP_temperature;BMP_pressure;BME280_temperature;BME280_humidity;BME280_pressure;Samples;Min_cycle;Max_cycle;Signal;HPM_P1;HPM_P2
2022/01/19 00:02:17;;;;;;;;;;;5.40;99.90;;;;;;4276411;33;25555;-81
2022/01/19 00:04:45;;;;;;;;;;;5.40;99.90;;;;;;4275586;33;43497;-81
2022/01/19 00:07:12;;;;;;;;;;;5.40;99.90;;;;;;4275821;33;37863;-82
2022/01/19 00:09:39;;;;;;;;;;;5.40;99.90;;;;;;4276040;33;30808;-81
2022/01/19 00:12:06;;;;;;;;;;;5.30;99.90;;;;;;4289749;33;28606;-81
2022/01/19 00:14:33;;;;;;;;;;;5.30;99.90;;;;;;4275688;33;44653;-81
2022/01/19 00:17:00;;;;;;;;;;;5.30;99.90;;;;;;4276199;33;41938;-81
2022/01/19 00:19:27;;;;;;;;;;;5.30;99.90;;;;;;4264296;33;36614;-81
2022/01/19 00:21:54;;;;;;;;;;;5.30;99.90;;;;;;4275784;33;39680;-81
2022/01/19 00:24:21;;;;;;;;;;;5.30;99.90;;;;;;4288704;33;37923;-81
2022/01/19 00:26:48;;;;;;;;;;;5.30;99.90;;;;;;4275930;33;43371;-81
2022/01/19 00:29:16;;;;;;;;;;;5.20;99.90;;;;;;4263759;33;44200;-81
2022/01/19 00:31:44;;;;;;;;;;;5.20;99.90;;;;;;4276803;33;20066;-82
2022/01/19 00:34:11;;;;;;;;;;;5.20;99.90;;;;;;4276242;33;30151;-81
2022/01/19 00:36:38;;;;;;;;;;;5.20;99.90;;;;;;4289606;33;19998;-81
2022/01/19 00:39:05;;;;;;;;;;;5.20;99.90;;;;;;4265089;33;20059;-81
2022/01/19 00:41:32;;;;;;;;;;;5.20;99.90;;;;;;4263675;33;42310;-81
2022/01/19 00:43:59;;;;;;;;;;;5.20;99.90;;;;;;4276009;33;39754;-81
2022/01/19 00:46:26;;;;;;;;;;;5.20;99.90;;;;;;4288733;33;44898;-81
2022/01/19 00:48:56;;;;;;;;;;;5.20;99.90;;;;;;4263564;33;37852;-81
2022/01/19 00:51:23;;;;;;;;;;;5.10;99.90;;;;;;4275352;33;38867;-81
2022/01/19 00:53:52;;;;;;;;;;;5.10;99.90;;;;;;4275613;33;35188;-81
2022/01/19 00:56:19;;;;;;;;;;;5.10;99.90;;;;;;4275269;33;40366;-81
2022/01/19 00:58:46;;;;;;;;;;;5.10;99.90;;;;;;4263532;33;37698;-81
2022/01/19 01:01:13;;;;;;;;;;;5.10;99.90;;;;;;4289559;33;20389;-81
2022/01/19 01:03:41;;;;;;;;;;;5.10;99.90;;;;;;4275061;33;42797;-81
2022/01/19 01:06:09;;;;;;;;;;;5.10;99.90;;;;;;4275708;33;34760;-81
2022/01/19 01:08:36;;;;;;;;;;;5.10;99.90;;;;;;4288945;33;22267;-81
2022/01/19 01:11:03;;;;;;;;;;;5.10;99.90;;;;;;4288274;33;31990;-81
2022/01/19 01:15:26;;;;;;;;;;;5.10;99.90;;;;;;4263650;33;28469;-81
2022/01/19 01:16:18;;;;;;;;;;;5.00;99.90;;;;;;4275749;33;22241;-81
2022/01/19 01:18:45;;;;;;;;;;;5.00;99.90;;;;;;4263167;33;39490;-81
2022/01/19 01:21:12;;;;;;;;;;;5.00;99.90;;;;;;4274912;33;44299;-81
2022/01/19 01:23:42;;;;;;;;;;;5.00;99.90;;;;;;4275126;33;35103;-81
2022/01/19 01:26:10;;;;;;;;;;;5.00;99.90;;;;;;4275413;33;43637;-81
2022/01/19 01:28:37;;;;;;;;;;;5.00;99.90;;;;;;4274940;33;45037;-81
2022/01/19 01:31:07;;;;;;;;;;;5.10;99.90;;;;;;4274417;33;44809;-81
2022/01/19 01:33:38;;;;;;;;;;;5.10;99.90;;;;;;4275211;33;40439;-81
2022/01/19 01:36:07;;;;;;;;;;;5.00;99.90;;;;;;4274666;33;46596;-81
2022/01/19 01:38:36;;;;;;;;;;;5.00;99.90;;;;;;4288181;33;43078;-81
2022/01/19 01:41:13;;;;;;;;;;;5.00;99.90;;;;;;4275410;33;37613;-81
2022/01/19 01:43:41;;;;;;;;;;;5.10;99.90;;;;;;4263976;33;20002;-82
2022/01/19 01:46:21;;;;;;;;;;;5.10;99.90;;;;;;4275471;33;20416;-81
2022/01/19 01:48:48;;;;;;;;;;;5.00;99.90;;;;;;4275600;33;20010;-81
2022/01/19 01:54:01;;;;;;;;;;;5.00;99.90;;;;;;4288665;33;20676;-81
2022/01/19 01:56:30;;;;;;;;;;;5.00;99.90;;;;;;4275459;33;20007;-81
2022/01/19 01:58:58;;;;;;;;;;;5.00;99.90;;;;;;4275610;33;20006;-81
2022/01/19 02:01:25;;;;;;;;;;;5.00;99.90;;;;;;4274693;33;20006;-81
2022/01/19 02:03:53;;;;;;;;;;;5.00;99.90;;;;;;4275464;33;20017;-82
2022/01/19 02:22:57;;;;;;;;;;;5.00;99.90;;;;;;4288254;33;20021;-82
2022/01/19 02:25:31;;;;;;;;;;;5.00;99.90;;;;;;4275431;33;20006;-82
2022/01/19 02:42:04;;;;;;;;;;;5.00;99.90;;;;;;4288115;33;20017;-82
2022/01/19 02:46:32;;;;;;;;;;;5.00;99.90;;;;;;4274864;33;20400;-81
2022/01/19 02:49:47;;;;;;;;;;;5.00;99.90;;;;;;4274904;33;20006;-82
2022/01/19 02:52:14;;;;;;;;;;;5.00;99.90;;;;;;4287854;33;20100;-81
2022/01/19 02:54:44;;;;;;;;;;;4.90;99.90;;;;;;4274833;33;20040;-82
2022/01/19 02:57:12;;;;;;;;;;;4.90;99.90;;;;;;4274582;33;20025;-82
2022/01/19 03:10:42;;;;;;;;;;;4.90;99.90;;;;;;4287894;33;20014;-81
2022/01/19 03:13:09;;;;;;;;;;;5.00;99.90;;;;;;4274810;33;20364;-82
2022/01/19 03:15:37;;;;;;;;;;;4.90;99.90;;;;;;4275630;33;20098;-82
2022/01/19 03:18:05;;;;;;;;;;;5.00;99.90;;;;;;4287773;33;20020;-82
2022/01/19 03:20:32;;;;;;;;;;;5.00;99.90;;;;;;4274704;33;20068;-81
2022/01/19 03:23:14;;;;;;;;;;;5.00;99.90;;;;;;4275146;33;20011;-82
2022/01/19 03:25:44;;;;;;;;;;;5.00;99.90;;;;;;4274869;33;20006;-82
2022/01/19 03:28:13;;;;;;;;;;;4.90;99.90;;;;;;4288179;33;20355;-82
2022/01/19 03:30:41;;;;;;;;;;;5.00;99.90;;;;;;4275055;33;20408;-82
2022/01/19 03:33:11;;;;;;;;;;;4.90;99.90;;;;;;4262877;33;20010;-82
2022/01/19 03:35:41;;;;;;;;;;;5.00;99.90;;;;;;4275148;33;20048;-81
2022/01/19 03:38:12;;;;;;;;;;;4.90;99.90;;;;;;4274959;33;20363;-81
2022/01/19 03:40:40;;;;;;;;;;;4.90;99.90;;;;;;4276466;33;23283;-81
2022/01/19 03:43:07;;;;;;;;;;;4.90;99.90;;;;;;4276802;33;41715;-82
2022/01/19 03:45:37;;;;;;;;;;;4.90;99.90;;;;;;4277460;33;20050;-82
2022/01/19 03:50:41;;;;;;;;;;;4.90;99.90;;;;;;4290111;33;20019;-82
2022/01/19 03:53:08;;;;;;;;;;;4.90;99.90;;;;;;4277434;33;20137;-82
2022/01/19 03:55:35;;;;;;;;;;;5.00;99.90;;;;;;4277200;33;20018;-82
2022/01/19 03:58:02;;;;;;;;;;;4.90;99.90;;;;;;4276357;33;40967;-82
2022/01/19 04:00:34;;;;;;;;;;;4.90;99.90;;;;;;4288150;33;32146;-82
2022/01/19 04:03:06;;;;;;;;;;;5.00;99.90;;;;;;4264127;33;40901;-82
2022/01/19 04:08:29;;;;;;;;;;;4.90;99.90;;;;;;4267030;33;39836;-82
2022/01/19 04:10:56;;;;;;;;;;;4.90;99.90;;;;;;4275818;33;37205;-82
2022/01/19 04:13:31;;;;;;;;;;;4.90;99.90;;;;;;4276031;33;43188;-82
2022/01/19 04:15:58;;;;;;;;;;;4.90;99.90;;;;;;4275860;33;44575;-82
2022/01/19 04:18:25;;;;;;;;;;;4.90;99.90;;;;;;4264272;33;35318;-82
2022/01/19 04:20:53;;;;;;;;;;;4.90;99.90;;;;;;4277190;33;20045;-82
2022/01/19 04:23:21;;;;;;;;;;;4.90;99.90;;;;;;4275800;33;47037;-82
2022/01/19 04:25:48;;;;;;;;;;;4.90;99.90;;;;;;4276246;33;35058;-82
2022/01/19 04:28:15;;;;;;;;;;;4.90;99.90;;;;;;4276341;33;38914;-82
2022/01/19 04:30:42;;;;;;;;;;;4.90;99.90;;;;;;4275815;33;34018;-82
2022/01/19 04:33:14;;;;;;;;;;;4.90;99.90;;;;;;4276298;33;37540;-82
2022/01/19 04:35:50;;;;;;;;;;;4.90;99.90;;;;;;4276254;33;36708;-81
2022/01/19 04:39:19;;;;;;;;;;;4.90;99.90;;;;;;4263717;33;43924;-82
2022/01/19 05:01:32;;;;;;;;;;;4.90;99.90;;;;;;4275309;33;41368;-82
2022/01/19 05:05:26;;;;;;;;;;;4.90;99.90;;;;;;4275245;33;39411;-82
2022/01/19 05:07:58;;;;;;;;;;;4.90;99.90;;;;;;4275761;33;36156;-82
2022/01/19 05:13:25;;;;;;;;;;;4.90;99.90;;;;;;4275505;33;34171;-82
2022/01/19 05:13:35;;;;;;;;;;;4.90;99.90;;;;;;4288615;33;40419;-82
2022/01/19 05:16:02;;;;;;;;;;;4.90;99.90;;;;;;4288290;33;43910;-81
2022/01/19 05:18:29;;;;;;;;;;;4.90;99.90;;;;;;4288281;33;34664;-82
2022/01/19 05:20:56;;;;;;;;;;;4.90;99.90;;;;;;4275893;33;20017;-82
2022/01/19 05:23:23;;;;;;;;;;;4.80;99.90;;;;;;4263193;33;43851;-82
2022/01/19 05:25:50;;;;;;;;;;;4.90;99.90;;;;;;4288092;33;38079;-82
2022/01/19 05:28:25;;;;;;;;;;;4.90;99.90;;;;;;4275597;33;41991;-82
2022/01/19 05:30:52;;;;;;;;;;;4.90;99.90;;;;;;4275092;33;39614;-82
2022/01/19 05:33:19;;;;;;;;;;;4.90;99.90;;;;;;4287774;33;32929;-82
2022/01/19 05:35:46;;;;;;;;;;;4.90;99.90;;;;;;4274743;33;42294;-82
2022/01/19 05:38:21;;;;;;;;;;;4.90;99.90;;;;;;4275384;33;36355;-81
2022/01/19 05:40:48;;;;;;;;;;;4.90;99.90;;;;;;4275048;33;32190;-82
2022/01/19 05:43:15;;;;;;;;;;;4.80;99.90;;;;;;4274997;33;39889;-81
2022/01/19 05:45:42;;;;;;;;;;;4.80;99.90;;;;;;4274763;33;33412;-81
2022/01/19 05:48:09;;;;;;;;;;;4.90;99.90;;;;;;4262920;33;43273;-82
2022/01/19 05:50:36;;;;;;;;;;;4.90;99.90;;;;;;4275192;33;30177;-82
2022/01/19 05:53:06;;;;;;;;;;;4.90;99.90;;;;;;4274399;33;44632;-82
2022/01/19 05:55:34;;;;;;;;;;;4.90;99.90;;;;;;4274956;33;44747;-82
2022/01/19 05:58:05;;;;;;;;;;;4.80;99.90;;;;;;4263073;33;30804;-82
2022/01/19 06:00:33;;;;;;;;;;;4.90;99.90;;;;;;4275151;33;36092;-82
2022/01/19 06:03:01;;;;;;;;;;;4.90;99.90;;;;;;4287596;33;20401;-81
2022/01/19 06:05:34;;;;;;;;;;;4.80;99.90;;;;;;4262910;33;34879;-82
2022/01/19 06:08:16;;;;;;;;;;;4.80;99.90;;;;;;4263032;33;35029;-82
2022/01/19 06:10:48;;;;;;;;;;;4.80;99.90;;;;;;4275453;33;20002;-82
2022/01/19 06:13:18;;;;;;;;;;;4.80;99.90;;;;;;4274910;33;20014;-82
2022/01/19 06:15:45;;;;;;;;;;;4.80;99.90;;;;;;4288105;33;24803;-82
2022/01/19 06:18:13;;;;;;;;;;;4.80;99.90;;;;;;4274999;33;21878;-82
2022/01/19 06:20:40;;;;;;;;;;;4.80;99.90;;;;;;4275312;33;20025;-81
2022/01/19 06:23:08;;;;;;;;;;;4.80;99.90;;;;;;4275530;33;20352;-82
2022/01/19 06:25:35;;;;;;;;;;;4.80;99.90;;;;;;4275108;33;20024;-82
2022/01/19 06:28:02;;;;;;;;;;;4.80;99.90;;;;;;4275040;33;20006;-82
2022/01/19 06:30:29;;;;;;;;;;;4.80;99.90;;;;;;4274766;33;23652;-81
2022/01/19 06:32:57;;;;;;;;;;;4.80;99.90;;;;;;4274817;33;21900;-82
2022/01/19 06:35:24;;;;;;;;;;;4.80;99.90;;;;;;4274539;33;23781;-82
2022/01/19 06:37:51;;;;;;;;;;;4.80;99.90;;;;;;4274935;33;21515;-82
2022/01/19 06:40:20;;;;;;;;;;;4.80;99.90;;;;;;4287727;33;20014;-81
2022/01/19 06:42:47;;;;;;;;;;;4.80;99.90;;;;;;4274764;33;20006;-82
2022/01/19 06:45:14;;;;;;;;;;;4.80;99.90;;;;;;4274694;33;21155;-81
2022/01/19 06:47:42;;;;;;;;;;;4.80;99.90;;;;;;4275106;33;20002;-81
2022/01/19 06:50:10;;;;;;;;;;;4.80;99.90;;;;;;4274695;33;20077;-81
2022/01/19 06:52:37;;;;;;;;;;;4.80;99.90;;;;;;4274535;33;20019;-82
2022/01/19 06:55:06;;;;;;;;;;;4.80;99.90;;;;;;4287726;33;20011;-82
2022/01/19 06:57:33;;;;;;;;;;;4.80;99.90;;;;;;4287567;33;20416;-82
2022/01/19 07:00:00;;;;;;;;;;;4.80;99.90;;;;;;4274935;33;20030;-82
2022/01/19 07:02:33;;;;;;;;;;;4.80;99.90;;;;;;4275278;33;20029;-82
2022/01/19 07:05:00;;;;;;;;;;;4.80;99.90;;;;;;4274796;33;20372;-82
2022/01/19 07:07:27;;;;;;;;;;;4.80;99.90;;;;;;4274531;33;20025;-82
2022/01/19 07:09:54;;;;;;;;;;;4.80;99.90;;;;;;4274767;33;20442;-82
2022/01/19 07:12:22;;;;;;;;;;;4.80;99.90;;;;;;4262836;33;19994;-82
2022/01/19 07:14:49;;;;;;;;;;;4.80;99.90;;;;;;4263819;33;20994;-81
2022/01/19 07:17:16;;;;;;;;;;;4.80;99.90;;;;;;4277260;33;20002;-82
2022/01/19 07:19:44;;;;;;;;;;;4.80;99.90;;;;;;4277825;33;20007;-81
2022/01/19 07:22:11;;;;;;;;;;;4.80;99.90;;;;;;4278114;33;20032;-82
2022/01/19 07:24:59;;;;;;;;;;;4.80;99.90;;;;;;4277552;33;20432;-81
2022/01/19 07:27:27;;;;;;;;;;;4.80;99.90;;;;;;4277659;33;20014;-82
2022/01/19 07:29:57;;;;;;;;;;;4.80;99.90;;;;;;4277022;33;20575;-81
2022/01/19 07:32:29;;;;;;;;;;;4.80;99.90;;;;;;4277317;33;20018;-81
2022/01/19 07:34:56;;;;;;;;;;;4.80;99.90;;;;;;4278042;33;20010;-81
2022/01/19 07:37:25;;;;;;;;;;;4.80;99.90;;;;;;4277891;33;20023;-82
2022/01/19 07:39:53;;;;;;;;;;;4.80;99.90;;;;;;4277897;33;20365;-82
2022/01/19 07:42:20;;;;;;;;;;;4.80;99.90;;;;;;4277503;33;20018;-82
2022/01/19 07:44:47;;;;;;;;;;;4.80;99.90;;;;;;4276927;33;20666;-82
2022/01/19 07:47:16;;;;;;;;;;;4.80;99.90;;;;;;4277416;33;20007;-81
2022/01/19 07:49:43;;;;;;;;;;;4.80;99.90;;;;;;4289910;33;20091;-82
2022/01/19 07:52:10;;;;;;;;;;;4.80;99.90;;;;;;4289186;33;44544;-82
2022/01/19 07:54:39;;;;;;;;;;;4.80;99.90;;;;;;4276439;33;39282;-82
2022/01/19 07:57:06;;;;;;;;;;;4.80;99.90;;;;;;4276005;33;34647;-82
2022/01/19 07:59:34;;;;;;;;;;;4.80;99.90;;;;;;4275500;33;39371;-82
2022/01/19 08:02:02;;;;;;;;;;;4.80;99.90;;;;;;4275942;33;41075;-82
2022/01/19 08:04:29;;;;;;;;;;;4.80;99.90;;;;;;4275636;33;45099;-81
2022/01/19 08:06:59;;;;;;;;;;;4.80;99.90;;;;;;4276349;33;35972;-82
2022/01/19 08:09:34;;;;;;;;;;;4.80;99.90;;;;;;4277208;33;20486;-87
2022/01/19 08:12:01;;;;;;;;;;;4.80;99.90;;;;;;4276298;33;43722;-87
2022/01/19 08:14:29;;;;;;;;;;;4.80;99.90;;;;;;4276828;33;20407;-86
2022/01/19 08:16:56;;;;;;;;;;;4.80;99.90;;;;;;4276943;33;20116;-86
2022/01/19 08:19:26;;;;;;;;;;;4.80;99.90;;;;;;4288745;33;44068;-87
2022/01/19 08:21:53;;;;;;;;;;;4.80;99.90;;;;;;4276695;33;20002;-87
2022/01/19 08:24:20;;;;;;;;;;;4.80;99.90;;;;;;4276578;33;29461;-87
2022/01/19 08:26:47;;;;;;;;;;;4.80;99.90;;;;;;4275447;33;39643;-86
2022/01/19 08:29:14;;;;;;;;;;;4.80;99.90;;;;;;4276637;33;32312;-86
2022/01/19 08:31:41;;;;;;;;;;;4.80;99.90;;;;;;4264659;33;34875;-87
2022/01/19 08:34:09;;;;;;;;;;;4.80;99.90;;;;;;4288666;33;39808;-86
2022/01/19 08:36:36;;;;;;;;;;;4.80;99.90;;;;;;4275906;33;45445;-86
2022/01/19 08:39:03;;;;;;;;;;;4.80;99.90;;;;;;4276058;33;39372;-86
2022/01/19 08:41:30;;;;;;;;;;;4.70;99.90;;;;;;4275961;33;44005;-86
2022/01/19 08:43:58;;;;;;;;;;;4.80;99.90;;;;;;4276594;33;27069;-86
2022/01/19 08:46:25;;;;;;;;;;;4.70;99.90;;;;;;4289422;33;27533;-86
2022/01/19 08:48:52;;;;;;;;;;;4.80;99.90;;;;;;4276334;33;29515;-86
2022/01/19 08:51:19;;;;;;;;;;;4.70;99.90;;;;;;4275898;33;43101;-85
2022/01/19 08:53:46;;;;;;;;;;;4.70;99.90;;;;;;4288630;33;38616;-86
2022/01/19 08:56:14;;;;;;;;;;;4.70;99.90;;;;;;4264117;33;32866;-86
2022/01/19 08:58:44;;;;;;;;;;;4.70;99.90;;;;;;4275942;33;36685;-86
2022/01/19 09:01:11;;;;;;;;;;;4.70;99.90;;;;;;4276857;33;20427;-87
2022/01/19 09:03:38;;;;;;;;;;;4.70;99.90;;;;;;4275771;33;34948;-86
2022/01/19 09:06:06;;;;;;;;;;;4.70;99.90;;;;;;4275025;33;44836;-86
2022/01/19 09:08:34;;;;;;;;;;;4.70;99.90;;;;;;4286943;33;43348;-86
2022/01/19 09:11:02;;;;;;;;;;;4.70;99.90;;;;;;4275684;33;38100;-86
2022/01/19 09:13:32;;;;;;;;;;;4.70;99.90;;;;;;4275333;33;36550;-86
2022/01/19 09:15:59;;;;;;;;;;;4.70;99.90;;;;;;4275479;33;27020;-86
2022/01/19 09:18:26;;;;;;;;;;;4.70;99.90;;;;;;4275314;33;38649;-86
2022/01/19 09:20:55;;;;;;;;;;;4.70;99.90;;;;;;4288554;33;32225;-86
2022/01/19 09:23:23;;;;;;;;;;;4.70;99.90;;;;;;4275298;33;37847;-86
2022/01/19 09:25:52;;;;;;;;;;;4.70;99.90;;;;;;4288098;33;37343;-86
2022/01/19 09:28:19;;;;;;;;;;;4.60;99.90;;;;;;4263522;33;38144;-86
2022/01/19 09:30:48;;;;;;;;;;;4.70;99.90;;;;;;4275476;33;32736;-86
2022/01/19 09:33:20;;;;;;;;;;;4.70;99.90;;;;;;4288403;33;38696;-86
2022/01/19 09:36:04;;;;;;;;;;;4.60;99.90;;;;;;4288843;33;27707;-86
2022/01/19 09:38:33;;;;;;;;;;;4.70;99.90;;;;;;4275508;33;34718;-86
2022/01/19 09:41:00;;;;;;;;;;;4.60;99.90;;;;;;4288220;33;36736;-86
2022/01/19 09:43:27;;;;;;;;;;;4.60;99.90;;;;;;4287624;33;40928;-86
2022/01/19 09:45:55;;;;;;;;;;;4.70;99.90;;;;;;4288146;33;33976;-86
2022/01/19 09:48:23;;;;;;;;;;;4.70;99.90;;;;;;4287746;33;43230;-86
2022/01/19 09:50:55;;;;;;;;;;;4.70;99.90;;;;;;4275396;33;38671;-86
2022/01/19 09:53:23;;;;;;;;;;;4.60;99.90;;;;;;4288026;33;36063;-86
2022/01/19 09:55:50;;;;;;;;;;;4.70;99.90;;;;;;4262705;33;45363;-86
2022/01/19 09:58:21;;;;;;;;;;;4.60;99.90;;;;;;4275146;33;36158;-86
2022/01/19 10:00:54;;;;;;;;;;;4.60;99.90;;;;;;4262762;33;44216;-85
2022/01/19 10:03:27;;;;;;;;;;;4.70;99.90;;;;;;4287718;33;32872;-86
2022/01/19 10:05:57;;;;;;;;;;;4.70;99.90;;;;;;4274409;33;39891;-86
2022/01/19 10:08:31;;;;;;;;;;;4.60;99.90;;;;;;4274867;33;37142;-86
2022/01/19 10:11:26;;;;;;;;;;;4.60;99.90;;;;;;4288998;33;20007;-86
2022/01/19 10:17:00;;;;;;;;;;;4.70;99.90;;;;;;4275118;33;20022;-86
2022/01/19 10:19:32;;;;;;;;;;;4.60;99.90;;;;;;4263499;33;20744;-86
2022/01/19 10:21:59;;;;;;;;;;;4.70;99.90;;;;;;4263934;33;20002;-85
2022/01/19 10:24:35;;;;;;;;;;;4.60;99.90;;;;;;4274357;33;36020;-86
2022/01/19 10:27:21;;;;;;;;;;;4.60;99.90;;;;;;4275085;33;25013;-86
2022/01/19 10:29:50;;;;;;;;;;;4.60;99.90;;;;;;4263585;33;20474;-86
2022/01/19 10:32:21;;;;;;;;;;;4.70;99.90;;;;;;4273954;33;44992;-85
2022/01/19 10:34:49;;;;;;;;;;;4.70;99.90;;;;;;4275156;33;20023;-85
2022/01/19 10:37:27;;;;;;;;;;;4.70;99.90;;;;;;4274182;33;38381;-85
2022/01/19 10:39:57;;;;;;;;;;;4.70;99.90;;;;;;4262259;33;40845;-85
2022/01/19 10:42:27;;;;;;;;;;;4.70;99.90;;;;;;4274586;33;33089;-85
2022/01/19 10:44:55;;;;;;;;;;;4.70;99.90;;;;;;4274719;33;33656;-85
2022/01/19 10:47:49;;;;;;;;;;;4.70;99.90;;;;;;4275755;33;40899;-85
2022/01/19 10:50:26;;;;;;;;;;;4.70;99.90;;;;;;4274193;33;44739;-85
2022/01/19 10:52:53;;;;;;;;;;;4.70;99.90;;;;;;4263090;33;20003;-85
2022/01/19 10:55:20;;;;;;;;;;;4.70;99.90;;;;;;4287013;33;38812;-85
2022/01/19 10:57:48;;;;;;;;;;;4.70;99.90;;;;;;4287687;33;34994;-85
2022/01/19 11:00:21;;;;;;;;;;;4.70;99.90;;;;;;4286269;33;32370;-85
2022/01/19 11:02:49;;;;;;;;;;;4.70;99.90;;;;;;4286513;33;44094;-85
2022/01/19 11:05:17;;;;;;;;;;;4.70;99.90;;;;;;4273874;33;37633;-85
2022/01/19 11:07:47;;;;;;;;;;;4.70;99.90;;;;;;4274278;33;44220;-86
2022/01/19 11:10:21;;;;;;;;;;;4.70;99.90;;;;;;4287394;33;42683;-85
2022/01/19 11:12:50;;;;;;;;;;;4.70;99.90;;;;;;4287506;33;33642;-85
2022/01/19 11:15:19;;;;;;;;;;;4.70;99.90;;;;;;4274191;33;34980;-85
2022/01/19 11:17:47;;;;;;;;;;;4.70;99.90;;;;;;4273579;33;46845;-84
2022/01/19 11:20:19;;;;;;;;;;;4.70;99.90;;;;;;4287065;33;33586;-86
2022/01/19 11:23:05;;;;;;;;;;;4.70;99.90;;;;;;4274904;33;20360;-86
2022/01/19 11:25:38;;;;;;;;;;;4.70;99.90;;;;;;4287668;33;22290;-86
2022/01/19 11:28:24;;;;;;;;;;;4.70;99.90;;;;;;4275679;33;21660;-85
2022/01/19 11:30:53;;;;;;;;;;;4.70;99.90;;;;;;4287845;33;21090;-86
2022/01/19 11:33:25;;;;;;;;;;;4.70;99.90;;;;;;4274573;33;20022;-87
2022/01/19 11:35:55;;;;;;;;;;;4.70;99.90;;;;;;4288399;33;20011;-87
2022/01/19 11:38:42;;;;;;;;;;;4.60;99.90;;;;;;4287588;33;20014;-86
2022/01/19 11:41:09;;;;;;;;;;;4.60;99.90;;;;;;4262889;33;20014;-87
2022/01/19 11:43:38;;;;;;;;;;;4.70;99.90;;;;;;4274755;33;19994;-87
2022/01/19 11:46:24;;;;;;;;;;;4.60;99.90;;;;;;4275185;33;20475;-87
2022/01/19 11:48:55;;;;;;;;;;;4.60;99.90;;;;;;4287267;33;39456;-87
2022/01/19 11:51:22;;;;;;;;;;;4.70;99.90;;;;;;4287237;33;40879;-86
2022/01/19 11:54:08;;;;;;;;;;;4.60;99.90;;;;;;4287351;33;20014;-86
2022/01/19 11:56:54;;;;;;;;;;;4.60;99.90;;;;;;4262005;33;45395;-87
2022/01/19 11:59:34;;;;;;;;;;;4.60;99.90;;;;;;4275108;33;20017;-86
2022/01/19 12:02:20;;;;;;;;;;;4.60;99.90;;;;;;4264348;33;20024;-86
2022/01/19 12:05:10;;;;;;;;;;;4.60;99.90;;;;;;4279523;33;20018;-86
2022/01/19 12:07:45;;;;;;;;;;;4.60;99.90;;;;;;4266162;33;20062;-86
2022/01/19 12:10:20;;;;;;;;;;;4.60;99.90;;;;;;4277299;33;20394;-87
2022/01/19 12:16:05;;;;;;;;;;;4.60;99.90;;;;;;4231345;34;20022;-87
2022/01/19 12:18:49;;;;;;;;;;;4.60;99.90;;;;;;4283577;33;36902;-87
2022/01/19 12:21:16;;;;;;;;;;;4.60;99.90;;;;;;4289403;33;38744;-87
2022/01/19 12:23:43;;;;;;;;;;;4.60;99.90;;;;;;4276378;33;20042;-87
2022/01/19 12:26:11;;;;;;;;;;;4.60;99.90;;;;;;4290047;33;20006;-87
2022/01/19 12:28:44;;;;;;;;;;;4.60;99.90;;;;;;4276904;33;20450;-86
2022/01/19 12:31:22;;;;;;;;;;;4.60;99.90;;;;;;4277714;33;20006;-87
2022/01/19 12:34:15;;;;;;;;;;;4.60;99.90;;;;;;4276900;33;20018;-86
2022/01/19 12:36:42;;;;;;;;;;;4.60;99.90;;;;;;4290521;33;20479;-87
2022/01/19 12:39:25;;;;;;;;;;;4.60;99.90;;;;;;4277409;33;20426;-87
2022/01/19 12:41:59;;;;;;;;;;;4.60;99.90;;;;;;4265105;33;20092;-86
2022/01/19 12:44:42;;;;;;;;;;;4.60;99.90;;;;;;4276820;33;20006;-86
2022/01/19 12:47:24;;;;;;;;;;;4.60;99.90;;;;;;4277342;33;20011;-87
2022/01/19 12:49:51;;;;;;;;;;;4.60;99.90;;;;;;4265080;33;20054;-86
2022/01/19 12:52:20;;;;;;;;;;;4.60;99.90;;;;;;4277164;33;20006;-87
2022/01/19 12:54:48;;;;;;;;;;;4.60;99.90;;;;;;4277103;33;20002;-86
2022/01/19 12:57:16;;;;;;;;;;;4.50;99.90;;;;;;4276246;33;20049;-87
2022/01/19 12:59:44;;;;;;;;;;;4.60;99.90;;;;;;4265269;33;20028;-87
2022/01/19 13:02:14;;;;;;;;;;;4.60;99.90;;;;;;4289700;33;20028;-86
2022/01/19 13:04:44;;;;;;;;;;;4.60;99.90;;;;;;4289696;33;20401;-86
2022/01/19 13:07:26;;;;;;;;;;;4.60;99.90;;;;;;4276876;33;20032;-87
2022/01/19 13:10:20;;;;;;;;;;;4.50;99.90;;;;;;4277202;33;20015;-87
2022/01/19 13:12:58;;;;;;;;;;;4.50;99.90;;;;;;4288635;33;35522;-87
2022/01/19 13:15:39;;;;;;;;;;;4.60;99.90;;;;;;4276466;33;21115;-87
2022/01/19 13:18:06;;;;;;;;;;;4.50;99.90;;;;;;4275646;33;39181;-87
2022/01/19 13:20:33;;;;;;;;;;;4.60;99.90;;;;;;4276023;33;29607;-87
2022/01/19 13:23:01;;;;;;;;;;;4.60;99.90;;;;;;4275671;33;33939;-86
2022/01/19 13:25:29;;;;;;;;;;;4.50;99.90;;;;;;4288254;33;30970;-86
2022/01/19 13:27:58;;;;;;;;;;;4.50;99.90;;;;;;4275304;33;44028;-87
2022/01/19 13:30:26;;;;;;;;;;;4.50;99.90;;;;;;4288540;33;20010;-87
2022/01/19 13:32:54;;;;;;;;;;;4.60;99.90;;;;;;4275867;33;20010;-86
2022/01/19 13:35:23;;;;;;;;;;;4.50;99.90;;;;;;4275676;33;22931;-86
2022/01/19 13:37:54;;;;;;;;;;;4.60;99.90;;;;;;4289364;33;20025;-87
2022/01/19 13:40:23;;;;;;;;;;;4.60;99.90;;;;;;4276526;33;20836;-87
2022/01/19 13:42:54;;;;;;;;;;;4.60;99.90;;;;;;4275830;33;20024;-87
2022/01/19 13:45:49;;;;;;;;;;;4.60;99.90;;;;;;4264527;33;20018;-87
2022/01/19 13:48:28;;;;;;;;;;;4.60;99.90;;;;;;4275327;33;41997;-88
2022/01/19 13:50:57;;;;;;;;;;;4.50;99.90;;;;;;4275306;33;40537;-87
2022/01/19 13:53:29;;;;;;;;;;;4.50;99.90;;;;;;4288406;33;37031;-87
2022/01/19 13:55:56;;;;;;;;;;;4.50;99.90;;;;;;4288367;33;41766;-87
2022/01/19 13:58:30;;;;;;;;;;;4.50;99.90;;;;;;4288304;33;40849;-87
2022/01/19 14:00:59;;;;;;;;;;;4.50;99.90;;;;;;4274930;33;43963;-87
2022/01/19 14:03:44;;;;;;;;;;;4.50;99.90;;;;;;4287820;33;35510;-88
2022/01/19 14:06:22;;;;;;;;;;;4.50;99.90;;;;;;4275849;33;20006;-87
2022/01/19 14:08:49;;;;;;;;;;;4.50;99.90;;;;;;4276003;33;20330;-87
2022/01/19 14:11:25;;;;;;;;;;;4.60;99.90;;;;;;4275037;33;20404;-87
2022/01/19 14:13:59;;;;;;;;;;;4.50;99.90;;;;;;4275651;33;19999;-86
2022/01/19 14:16:35;;;;;;;;;;;4.60;99.90;;;;;;4275817;33;20053;-87
2022/01/19 14:19:09;;;;;;;;;;;4.60;99.90;;;;;;4276268;33;20117;-87
2022/01/19 14:21:56;;;;;;;;;;;4.60;99.90;;;;;;4264070;33;19999;-87
2022/01/19 14:24:24;;;;;;;;;;;4.50;99.90;;;;;;4262768;33;20007;-87
2022/01/19 14:26:52;;;;;;;;;;;4.60;99.90;;;;;;4275329;33;20415;-87
2022/01/19 14:29:20;;;;;;;;;;;4.60;99.90;;;;;;4288286;33;20030;-87
2022/01/19 14:31:48;;;;;;;;;;;4.60;99.90;;;;;;4287815;33;20002;-87
2022/01/19 14:34:35;;;;;;;;;;;4.60;99.90;;;;;;4288512;33;20046;-87
2022/01/19 14:37:09;;;;;;;;;;;4.60;99.90;;;;;;4288432;33;20040;-87
2022/01/19 14:39:54;;;;;;;;;;;4.60;99.90;;;;;;4263535;33;20016;-86
2022/01/19 14:42:24;;;;;;;;;;;4.60;99.90;;;;;;4275527;33;20046;-87
2022/01/19 14:45:03;;;;;;;;;;;4.60;99.90;;;;;;4288312;33;20024;-85
2022/01/19 14:47:37;;;;;;;;;;;4.60;99.90;;;;;;4288471;33;20021;-87
2022/01/19 14:50:17;;;;;;;;;;;4.60;99.90;;;;;;4288510;33;20011;-87
2022/01/19 14:52:44;;;;;;;;;;;4.60;99.90;;;;;;4274872;33;20029;-87
2022/01/19 14:55:11;;;;;;;;;;;4.60;99.90;;;;;;4275498;33;20360;-86
2022/01/19 14:57:38;;;;;;;;;;;4.60;99.90;;;;;;4288308;33;20029;-87
2022/01/19 15:00:06;;;;;;;;;;;4.60;99.90;;;;;;4263904;33;20007;-87
2022/01/19 15:02:33;;;;;;;;;;;4.60;99.90;;;;;;4287764;33;20084;-87
2022/01/19 15:05:01;;;;;;;;;;;4.60;99.90;;;;;;4275338;33;20404;-86
2022/01/19 15:07:28;;;;;;;;;;;4.60;99.90;;;;;;4287776;33;20023;-86
2022/01/19 15:09:57;;;;;;;;;;;4.60;99.90;;;;;;4288348;33;20007;-86
2022/01/19 15:12:24;;;;;;;;;;;4.60;99.90;;;;;;4274664;33;20121;-87
2022/01/19 15:14:52;;;;;;;;;;;4.60;99.90;;;;;;4287972;33;20039;-86
2022/01/19 15:17:19;;;;;;;;;;;4.60;99.90;;;;;;4274883;33;20014;-87
2022/01/19 15:19:46;;;;;;;;;;;4.60;99.90;;;;;;4275117;33;20359;-86
2022/01/19 15:22:13;;;;;;;;;;;4.60;99.90;;;;;;4275096;33;20168;-87
2022/01/19 15:24:40;;;;;;;;;;;4.60;99.90;;;;;;4275498;33;20018;-86
2022/01/19 15:27:07;;;;;;;;;;;4.60;99.90;;;;;;4287512;33;19998;-86
2022/01/19 15:29:34;;;;;;;;;;;4.60;99.90;;;;;;4275263;33;20003;-86
2022/01/19 15:32:03;;;;;;;;;;;4.60;99.90;;;;;;4275444;33;20037;-86
2022/01/19 15:34:30;;;;;;;;;;;4.60;99.90;;;;;;4275113;33;19999;-86
2022/01/19 15:36:57;;;;;;;;;;;4.60;99.90;;;;;;4264945;33;20013;-86
2022/01/19 15:39:24;;;;;;;;;;;4.60;99.90;;;;;;4290977;33;20007;-85
2022/01/19 15:41:51;;;;;;;;;;;4.60;99.90;;;;;;4265741;33;20034;-86
2022/01/19 15:44:18;;;;;;;;;;;4.60;99.90;;;;;;4277303;33;20389;-85
2022/01/19 15:46:46;;;;;;;;;;;4.60;99.90;;;;;;4290272;33;20018;-86
2022/01/19 15:49:13;;;;;;;;;;;4.60;99.90;;;;;;4290414;33;20084;-86
2022/01/19 15:51:41;;;;;;;;;;;4.60;99.90;;;;;;4277653;33;20434;-86
2022/01/19 15:54:09;;;;;;;;;;;4.60;99.90;;;;;;4277294;33;20042;-86
2022/01/19 15:56:37;;;;;;;;;;;4.60;99.90;;;;;;4276773;33;20009;-86
2022/01/19 15:59:05;;;;;;;;;;;4.60;99.90;;;;;;4278022;33;20054;-86
2022/01/19 16:01:32;;;;;;;;;;;4.60;99.90;;;;;;4290429;33;20011;-86
2022/01/19 16:03:59;;;;;;;;;;;4.60;99.90;;;;;;4278160;33;20469;-86
2022/01/19 16:06:26;;;;;;;;;;;4.60;99.90;;;;;;4276846;33;20026;-86
2022/01/19 16:08:54;;;;;;;;;;;4.60;99.90;;;;;;4277799;33;20115;-86
2022/01/19 16:11:23;;;;;;;;;;;4.60;99.90;;;;;;4277282;33;20380;-86